SCCC

Chile Chico Airport

Airport
ICAO code
SCCC
IATA Code
CCH
Summary
ICAO Region
CARSAM
ICAO Territory
Location

Chile Chico, Aisen del General Carlos Ibanez del Campo

Serving
Chile Chico
Elevation
1070 ft
Coordinates
46° 35' 0" S , 71° 41' 15" W
KCC
Metar
Observation
SCCC 301900Z 27011KT 9999 FEW040 22/M08 Q1014
Station
Chile Chico
Date/Time
2023-01-30 19:00:00
Wind direction
270°
Wind speed
11 kts
Lowest cloud amount
few clouds
Temperature
22°C
Dew point
-8°C
Humidity
12%
QNH
1014 hPa
Weather condition
n/a

Airport 5km south south east of Chile Chico, Chile.

Climatology

Temperate mediterranean climate (Köppen climate classification Csb)

Runways

Designator Length Width Surface Rops
12/30 1200 23 ASP No/No

Airport map

Aerial View

SKYbrary Partners:

Safety knowledge contributed by: